createdAt,value
2023-05-21T00:01:17.472Z,15.52
2023-05-21T00:03:46.437Z,16.40
2023-05-21T00:06:16.274Z,17.30
2023-05-21T00:08:43.280Z,14.98
2023-05-21T00:11:10.105Z,16.50
2023-05-21T00:13:36.901Z,14.10
2023-05-21T00:16:03.750Z,14.45
2023-05-21T00:18:32.573Z,16.55
2023-05-21T00:20:59.816Z,15.60
2023-05-21T00:23:27.049Z,18.70
2023-05-21T00:25:53.879Z,16.08
2023-05-21T00:28:20.727Z,16.90
2023-05-21T00:30:47.559Z,16.05
2023-05-21T00:33:14.925Z,15.52
2023-05-21T00:35:41.890Z,17.60
2023-05-21T00:38:08.815Z,18.55
2023-05-21T00:40:36.543Z,16.67
2023-05-21T00:43:03.632Z,16.45
2023-05-21T00:45:30.657Z,15.65
2023-05-21T00:47:57.663Z,16.77
2023-05-21T00:50:24.692Z,14.98
2023-05-21T00:52:51.984Z,17.85
2023-05-21T00:55:18.798Z,17.27
2023-05-21T00:57:46.283Z,17.45
2023-05-21T01:00:14.839Z,18.52
2023-05-21T01:02:42.406Z,17.85
2023-05-21T01:05:10.336Z,18.23
2023-05-21T01:07:39.311Z,15.90
2023-05-21T01:10:08.006Z,18.48
2023-05-21T01:12:35.572Z,21.75
2023-05-21T01:15:06.118Z,17.25
2023-05-21T01:17:34.514Z,16.88
2023-05-21T01:20:01.866Z,20.58
2023-05-21T01:22:32.717Z,17.15
2023-05-21T01:25:02.999Z,18.27
2023-05-21T01:27:29.951Z,20.13
2023-05-21T01:29:56.895Z,16.42
2023-05-21T01:32:41.484Z,17.70
2023-05-21T01:35:09.474Z,19.38
2023-05-21T01:37:50.795Z,17.90
2023-05-21T01:40:28.660Z,19.33
2023-05-21T01:42:56.281Z,18.85
2023-05-21T01:45:24.290Z,19.35
2023-05-21T01:47:52.452Z,21.42
2023-05-21T01:50:19.315Z,18.75
2023-05-21T01:52:51.616Z,17.63
2023-05-21T01:55:18.791Z,19.03
2023-05-21T01:57:45.770Z,20.30
2023-05-21T02:00:13.103Z,16.52
2023-05-21T02:02:42.818Z,19.17
2023-05-21T02:05:10.190Z,19.00
2023-05-21T02:07:37.714Z,19.23
2023-05-21T02:10:04.600Z,19.77
2023-05-21T02:12:31.370Z,16.05
2023-05-21T02:14:58.127Z,21.83
2023-05-21T02:17:25.180Z,19.55
2023-05-21T02:19:52.378Z,18.13
2023-05-21T02:22:19.148Z,20.73
2023-05-21T02:24:45.995Z,20.70
2023-05-21T02:27:13.857Z,19.00
2023-05-21T02:29:40.668Z,19.02
2023-05-21T02:32:07.849Z,20.92
2023-05-21T02:34:35.248Z,19.33
2023-05-21T02:37:02.249Z,19.02
2023-05-21T02:39:29.102Z,19.92
2023-05-21T02:41:56.402Z,19.20
2023-05-21T02:44:24.287Z,18.90
2023-05-21T02:46:51.161Z,21.98
2023-05-21T02:49:18.592Z,21.05
2023-05-21T02:51:50.245Z,20.10
2023-05-21T02:54:17.024Z,20.08
2023-05-21T02:56:47.367Z,19.73
2023-05-21T02:59:14.191Z,23.85
2023-05-21T03:01:45.420Z,23.48
2023-05-21T03:04:12.284Z,23.58
2023-05-21T03:06:39.086Z,20.45
2023-05-21T03:09:06.208Z,20.67
2023-05-21T03:11:33.001Z,22.42
2023-05-21T03:13:59.781Z,24.35
2023-05-21T03:16:26.725Z,23.23
2023-05-21T03:18:53.660Z,23.90
2023-05-21T03:21:22.874Z,22.75
2023-05-21T03:23:49.843Z,21.63
2023-05-21T03:26:16.806Z,26.23
2023-05-21T03:28:43.789Z,23.45
2023-05-21T03:31:10.670Z,23.25
2023-05-21T03:34:02.987Z,23.92
2023-05-21T03:36:31.673Z,35.58
2023-05-21T03:38:58.560Z,22.80
2023-05-21T03:41:26.357Z,25.90
2023-05-21T03:44:02.650Z,26.73
2023-05-21T03:46:36.818Z,23.88
2023-05-21T03:49:10.058Z,23.13
2023-05-21T03:51:41.304Z,25.23
2023-05-21T03:54:11.614Z,24.08
2023-05-21T03:56:39.252Z,26.02
2023-05-21T03:59:06.064Z,25.27
2023-05-21T04:01:33.552Z,22.40
2023-05-21T04:04:01.408Z,26.75
2023-05-21T04:06:28.786Z,27.27
2023-05-21T04:08:55.668Z,25.50
2023-05-21T04:11:22.744Z,24.45
2023-05-21T04:13:49.521Z,28.98
2023-05-21T04:16:19.571Z,27.17
2023-05-21T04:18:47.150Z,28.88
2023-05-21T04:21:15.642Z,26.00
2023-05-21T04:23:42.444Z,26.63
2023-05-21T04:26:35.682Z,24.63
2023-05-21T04:29:04.006Z,26.30
2023-05-21T04:31:32.550Z,24.85
2023-05-21T04:34:02.960Z,25.92
2023-05-21T04:36:30.381Z,27.13
2023-05-21T04:38:57.302Z,25.58
2023-05-21T04:41:27.337Z,26.40
2023-05-21T04:43:55.537Z,31.25
2023-05-21T04:46:25.919Z,25.65
2023-05-21T04:48:55.431Z,27.05
2023-05-21T04:51:24.915Z,24.33
2023-05-21T04:53:52.215Z,27.40
2023-05-21T04:56:19.080Z,25.48
2023-05-21T04:58:48.173Z,24.23
2023-05-21T05:01:16.057Z,25.63
2023-05-21T05:03:42.996Z,24.45
2023-05-21T05:06:09.840Z,24.52
2023-05-21T05:08:36.690Z,27.95
2023-05-21T05:11:04.363Z,27.60
2023-05-21T05:13:31.545Z,26.30
2023-05-21T05:15:58.450Z,27.38
2023-05-21T05:18:26.694Z,26.55
2023-05-21T05:20:54.730Z,25.85
2023-05-21T05:23:21.655Z,24.33
2023-05-21T05:25:54.715Z,22.88
2023-05-21T05:28:22.009Z,27.15
2023-05-21T05:30:48.918Z,24.25
2023-05-21T05:33:24.606Z,27.50
2023-05-21T05:35:51.518Z,25.20
2023-05-21T05:38:18.294Z,23.67
2023-05-21T05:40:48.213Z,25.33
2023-05-21T05:43:15.036Z,25.10
2023-05-21T05:45:41.812Z,25.08
2023-05-21T05:48:13.491Z,23.25
2023-05-21T05:50:40.329Z,23.02
2023-05-21T05:53:07.556Z,25.23
2023-05-21T05:55:34.931Z,28.05
2023-05-21T05:58:01.949Z,26.30
2023-05-21T06:00:28.881Z,25.05
2023-05-21T06:03:00.531Z,26.67
2023-05-21T06:05:27.554Z,24.65
2023-05-21T06:07:54.334Z,24.70
2023-05-21T06:10:21.288Z,22.63
2023-05-21T06:12:48.090Z,25.50
2023-05-21T06:15:16.724Z,24.25
2023-05-21T06:17:43.806Z,24.23
2023-05-21T06:20:16.654Z,22.67
2023-05-21T06:22:44.137Z,25.52
2023-05-21T06:25:11.182Z,21.30
2023-05-21T06:27:38.945Z,22.75
2023-05-21T06:30:14.161Z,22.35
2023-05-21T06:32:41.123Z,27.30
2023-05-21T06:35:08.341Z,24.10
2023-05-21T06:37:35.370Z,21.80
2023-05-21T06:40:02.842Z,22.02
2023-05-21T06:42:31.178Z,20.95
2023-05-21T06:45:16.615Z,20.10
2023-05-21T06:47:45.486Z,23.25
2023-05-21T06:50:12.347Z,21.08
2023-05-21T06:52:39.179Z,20.95
2023-05-21T06:55:07.275Z,17.38
2023-05-21T06:57:54.064Z,21.30
2023-05-21T07:00:20.992Z,21.25
2023-05-21T07:02:48.781Z,18.52
2023-05-21T07:05:16.001Z,20.80
2023-05-21T07:07:43.094Z,21.63
2023-05-21T07:10:10.229Z,17.83
2023-05-21T07:12:38.089Z,21.17
2023-05-21T07:15:05.118Z,19.60
2023-05-21T07:17:31.980Z,18.30
2023-05-21T07:19:58.783Z,17.58
2023-05-21T07:22:27.923Z,22.45
2023-05-21T07:24:55.269Z,15.07
2023-05-21T07:27:25.775Z,17.48
2023-05-21T07:29:54.421Z,21.15
2023-05-21T07:32:21.726Z,17.80
2023-05-21T07:34:48.699Z,18.52
2023-05-21T07:37:15.562Z,17.33
2023-05-21T07:39:42.417Z,16.25
2023-05-21T07:42:11.075Z,16.63
2023-05-21T07:44:37.970Z,16.40
2023-05-21T07:47:04.937Z,16.33
2023-05-21T07:49:32.133Z,17.00
2023-05-21T07:51:59.147Z,15.93
2023-05-21T07:54:26.105Z,15.98
2023-05-21T07:56:53.080Z,20.75
2023-05-21T07:59:41.998Z,14.73
2023-05-21T08:02:09.109Z,14.68
2023-05-21T08:04:37.954Z,13.75
2023-05-21T08:07:06.349Z,14.65
2023-05-21T08:09:33.257Z,14.07
2023-05-21T08:12:00.256Z,15.30
2023-05-21T08:14:27.160Z,15.55
2023-05-21T08:16:54.396Z,14.38
2023-05-21T08:19:21.587Z,12.50
2023-05-21T08:21:50.237Z,14.02
2023-05-21T08:24:18.284Z,14.40
2023-05-21T08:26:45.357Z,13.73
2023-05-21T08:29:12.428Z,13.18
2023-05-21T08:31:40.916Z,13.45
2023-05-21T08:34:07.775Z,12.32
2023-05-21T08:36:43.471Z,14.63
2023-05-21T08:39:27.007Z,13.60
2023-05-21T08:41:57.764Z,11.25
2023-05-21T08:44:26.860Z,14.27
2023-05-21T08:46:55.225Z,12.65
2023-05-21T08:49:27.023Z,16.30
2023-05-21T08:51:55.914Z,12.50
2023-05-21T08:54:22.925Z,12.68
2023-05-21T08:56:49.895Z,10.40
2023-05-21T08:59:18.609Z,17.58
2023-05-21T09:01:47.235Z,12.85
2023-05-21T09:04:28.326Z,12.15
2023-05-21T09:06:58.193Z,12.32
2023-05-21T09:09:56.216Z,12.60
2023-05-21T09:12:26.481Z,13.85
2023-05-21T09:14:53.760Z,13.45
2023-05-21T09:17:26.341Z,11.40
2023-05-21T09:20:16.657Z,11.10
2023-05-21T09:22:52.654Z,12.32
2023-05-21T09:25:25.257Z,10.25
2023-05-21T09:27:52.212Z,12.63
2023-05-21T09:30:21.611Z,10.75
2023-05-21T09:32:57.305Z,11.98
2023-05-21T09:35:24.202Z,10.38
2023-05-21T09:37:52.587Z,11.18
2023-05-21T09:40:21.369Z,9.18
2023-05-21T09:42:52.725Z,8.88
2023-05-21T09:45:20.676Z,13.95
2023-05-21T09:47:50.049Z,11.68
2023-05-21T09:50:21.598Z,10.30
2023-05-21T09:52:50.952Z,11.90
2023-05-21T09:55:17.742Z,10.38
2023-05-21T09:57:47.188Z,10.27
2023-05-21T10:00:23.021Z,11.10
2023-05-21T10:02:51.524Z,8.52
2023-05-21T10:05:18.442Z,8.57
2023-05-21T10:07:50.489Z,7.30
2023-05-21T10:10:19.926Z,10.13
2023-05-21T10:12:48.293Z,10.00
2023-05-21T10:15:17.705Z,12.32
2023-05-21T10:17:46.279Z,9.70
2023-05-21T10:20:15.600Z,9.75
2023-05-21T10:22:42.777Z,6.35
2023-05-21T10:25:10.234Z,6.90
2023-05-21T10:27:37.665Z,10.55
2023-05-21T10:30:06.009Z,7.57
2023-05-21T10:33:11.249Z,7.63
2023-05-21T10:35:41.582Z,6.40
2023-05-21T10:38:10.125Z,7.90
2023-05-21T10:40:37.107Z,10.90
2023-05-21T10:43:14.163Z,8.02
2023-05-21T10:46:06.598Z,6.97
2023-05-21T10:48:52.099Z,5.85
2023-05-21T10:51:55.082Z,8.63
2023-05-21T10:54:47.606Z,6.53
2023-05-21T10:57:34.875Z,7.80
2023-05-21T11:00:04.214Z,5.00
2023-05-21T11:02:31.271Z,6.38
2023-05-21T11:04:59.342Z,9.38
2023-05-21T11:07:58.902Z,8.73
2023-05-21T11:10:38.579Z,9.05
2023-05-21T11:13:16.473Z,10.70
2023-05-21T11:15:58.877Z,7.32
2023-05-21T11:18:38.163Z,4.75
2023-05-21T11:21:10.937Z,15.13
2023-05-21T11:24:13.595Z,6.22
2023-05-21T11:26:50.310Z,8.13
2023-05-21T11:29:17.851Z,12.38
2023-05-21T11:32:04.451Z,17.13
2023-05-21T11:34:42.210Z,14.15
2023-05-21T11:37:18.425Z,6.63
2023-05-21T11:39:45.757Z,8.32
2023-05-21T11:42:12.970Z,7.53
2023-05-21T11:44:41.212Z,6.07
2023-05-21T11:47:10.202Z,6.07
2023-05-21T11:49:38.322Z,8.20
2023-05-21T11:52:06.864Z,6.07
2023-05-21T11:54:37.903Z,7.03
2023-05-21T11:57:09.080Z,19.70
2023-05-21T11:59:36.737Z,7.85
2023-05-21T12:02:04.316Z,5.32
2023-05-21T12:04:36.607Z,8.77
2023-05-21T12:07:09.976Z,5.78
2023-05-21T12:09:47.922Z,9.38
2023-05-21T12:12:17.219Z,11.07
2023-05-21T12:14:48.192Z,7.03
2023-05-21T12:17:23.055Z,6.05
2023-05-21T12:19:53.067Z,10.70
2023-05-21T12:22:20.089Z,9.77
2023-05-21T12:24:48.544Z,8.10
2023-05-21T12:27:17.230Z,11.10
2023-05-21T12:29:45.747Z,8.98
2023-05-21T12:32:16.342Z,8.35
2023-05-21T12:34:49.095Z,5.90
2023-05-21T12:37:22.316Z,7.88
2023-05-21T12:39:50.746Z,7.68
2023-05-21T12:42:17.632Z,12.77
2023-05-21T12:44:46.477Z,13.73
2023-05-21T12:47:14.061Z,11.02
2023-05-21T12:49:42.352Z,28.15
2023-05-21T12:52:13.707Z,10.57
2023-05-21T12:54:43.305Z,8.23
2023-05-21T12:57:14.465Z,7.93
2023-05-21T12:59:49.759Z,9.25
2023-05-21T13:02:31.247Z,10.10
2023-05-21T13:05:05.777Z,10.52
2023-05-21T13:07:34.005Z,5.80
2023-05-21T13:10:02.898Z,6.88
2023-05-21T13:12:31.813Z,5.75
2023-05-21T13:15:00.299Z,8.20
2023-05-21T13:17:28.367Z,5.40
2023-05-21T13:20:09.531Z,5.85
2023-05-21T13:22:39.337Z,5.88
2023-05-21T13:25:07.552Z,8.15
2023-05-21T13:27:34.471Z,7.43
2023-05-21T13:30:02.319Z,7.97
2023-05-21T13:32:29.569Z,6.85
2023-05-21T13:34:56.500Z,9.70
2023-05-21T13:37:23.425Z,8.40
2023-05-21T13:39:50.411Z,9.40
2023-05-21T13:42:17.454Z,6.97
2023-05-21T13:44:48.277Z,7.47
2023-05-21T13:47:15.151Z,6.78
2023-05-21T13:49:42.187Z,6.85
2023-05-21T13:52:09.770Z,6.85
2023-05-21T13:54:37.041Z,6.38
2023-05-21T13:57:04.404Z,8.25
2023-05-21T13:59:33.631Z,6.38
2023-05-21T14:02:01.252Z,7.32
2023-05-21T14:04:31.416Z,5.35
2023-05-21T14:06:58.291Z,6.07
2023-05-21T14:09:27.471Z,6.72
2023-05-21T14:11:55.467Z,8.25
2023-05-21T14:14:22.941Z,9.70
2023-05-21T14:16:50.855Z,7.65
2023-05-21T14:19:18.184Z,7.38
2023-05-21T14:21:45.159Z,6.32
2023-05-21T14:24:12.043Z,8.85
2023-05-21T14:26:41.197Z,6.60
2023-05-21T14:29:08.283Z,7.38
2023-05-21T14:31:35.196Z,6.63
2023-05-21T14:34:03.103Z,7.03
2023-05-21T14:36:30.097Z,10.90
2023-05-21T14:38:57.095Z,6.55
2023-05-21T14:41:28.263Z,6.60
2023-05-21T14:43:55.497Z,6.97
2023-05-21T14:46:22.506Z,7.60
2023-05-21T14:48:50.594Z,5.72
2023-05-21T14:51:19.435Z,6.45
2023-05-21T14:53:46.218Z,9.40
2023-05-21T14:56:14.218Z,6.88
2023-05-21T14:58:41.277Z,6.13
2023-05-21T15:01:08.215Z,9.48
2023-05-21T15:03:35.227Z,6.85
2023-05-21T15:06:02.245Z,5.68
2023-05-21T15:08:29.128Z,9.27
2023-05-21T15:10:55.981Z,7.65
2023-05-21T15:13:22.783Z,7.35
2023-05-21T15:15:50.332Z,7.90
2023-05-21T15:18:17.320Z,6.05
2023-05-21T15:20:44.573Z,8.15
2023-05-21T15:23:17.491Z,7.30
2023-05-21T15:25:45.784Z,8.65
2023-05-21T15:28:12.998Z,8.48
2023-05-21T15:30:40.193Z,6.82
2023-05-21T15:33:07.123Z,7.35
2023-05-21T15:35:36.693Z,6.50
2023-05-21T15:38:03.903Z,7.20
2023-05-21T15:40:32.148Z,7.40
2023-05-21T15:42:59.086Z,6.55
2023-05-21T15:45:26.024Z,5.65
2023-05-21T15:47:53.084Z,9.38
2023-05-21T15:50:20.083Z,5.63
2023-05-21T15:52:46.919Z,7.85
2023-05-21T15:55:14.393Z,9.82
2023-05-21T15:57:41.356Z,6.47
2023-05-21T16:00:10.677Z,7.50
2023-05-21T16:02:37.751Z,6.65
2023-05-21T16:05:04.808Z,6.43
2023-05-21T16:07:31.643Z,10.77
2023-05-21T16:09:58.597Z,6.10
2023-05-21T16:12:26.633Z,6.50
2023-05-21T16:14:53.413Z,5.57
2023-05-21T16:17:20.364Z,5.43
2023-05-21T16:19:47.832Z,8.18
2023-05-21T16:22:14.994Z,10.48
2023-05-21T16:24:42.164Z,7.68
2023-05-21T16:27:09.231Z,8.60
2023-05-21T16:29:36.782Z,7.88
2023-05-21T16:32:05.522Z,11.95
2023-05-21T16:34:32.484Z,7.00
2023-05-21T16:37:02.692Z,6.35
2023-05-21T16:39:29.587Z,6.38
2023-05-21T16:41:59.825Z,8.45
2023-05-21T16:44:27.331Z,7.07
2023-05-21T16:46:54.454Z,9.02
2023-05-21T16:49:21.252Z,6.97
2023-05-21T16:51:48.165Z,6.85
2023-05-21T16:54:15.399Z,7.03
2023-05-21T16:56:42.208Z,6.53
2023-05-21T16:59:09.339Z,5.65
2023-05-21T17:01:36.185Z,7.45
2023-05-21T17:04:03.232Z,7.18
2023-05-21T17:06:30.202Z,8.55
2023-05-21T17:08:57.284Z,6.43
2023-05-21T17:11:24.178Z,7.35
2023-05-21T17:13:51.211Z,6.20
2023-05-21T17:16:18.136Z,6.38
2023-05-21T17:18:44.964Z,4.25
2023-05-21T17:21:12.036Z,6.72
2023-05-21T17:23:38.956Z,9.40
2023-05-21T17:26:07.308Z,6.65
2023-05-21T17:28:34.313Z,9.07
2023-05-21T17:31:02.009Z,8.18
2023-05-21T17:33:29.022Z,4.85
2023-05-21T17:35:57.258Z,5.10
2023-05-21T17:38:24.322Z,8.68
2023-05-21T17:40:51.256Z,7.63
2023-05-21T17:43:18.271Z,5.18
2023-05-21T17:45:45.119Z,6.90
2023-05-21T17:48:12.362Z,6.20
2023-05-21T17:50:39.320Z,6.97
2023-05-21T17:53:06.142Z,9.40
2023-05-21T17:55:33.040Z,7.40
2023-05-21T17:58:00.133Z,6.60
2023-05-21T18:00:27.111Z,5.03
2023-05-21T18:02:54.051Z,7.13
2023-05-21T18:05:21.212Z,8.63
2023-05-21T18:07:48.417Z,9.40
2023-05-21T18:10:15.719Z,8.23
2023-05-21T18:12:42.577Z,11.00
2023-05-21T18:15:10.184Z,7.22
2023-05-21T18:17:37.100Z,7.80
2023-05-21T18:20:05.372Z,8.85
2023-05-21T18:22:32.320Z,5.47
2023-05-21T18:24:59.223Z,7.68
2023-05-21T18:27:26.251Z,6.80
2023-05-21T18:29:53.227Z,7.18
2023-05-21T18:32:20.420Z,6.57
2023-05-21T18:34:48.640Z,5.05
2023-05-21T18:37:17.310Z,7.38
2023-05-21T18:39:44.216Z,6.07
2023-05-21T18:42:13.326Z,5.35
2023-05-21T18:44:41.164Z,7.10
2023-05-21T18:47:08.287Z,5.82
2023-05-21T18:49:36.553Z,4.72
2023-05-21T18:52:04.474Z,7.20
2023-05-21T18:54:31.445Z,5.82
2023-05-21T18:57:00.691Z,6.50
2023-05-21T18:59:28.996Z,6.38
2023-05-21T19:01:55.940Z,4.25
2023-05-21T19:04:22.993Z,8.27
2023-05-21T19:06:53.467Z,6.65
2023-05-21T19:09:20.250Z,10.45
2023-05-21T19:11:47.109Z,5.32
2023-05-21T19:14:14.007Z,6.97
2023-05-21T19:16:41.200Z,8.70
2023-05-21T19:19:08.215Z,9.15
2023-05-21T19:21:35.112Z,5.93
2023-05-21T19:24:03.587Z,8.55
2023-05-21T19:26:31.867Z,7.13
2023-05-21T19:28:58.702Z,7.78
2023-05-21T19:31:26.544Z,5.10
2023-05-21T19:33:53.602Z,4.68
2023-05-21T19:36:21.263Z,5.75
2023-05-21T19:38:49.175Z,5.50
2023-05-21T19:41:17.061Z,7.97
2023-05-21T19:43:44.977Z,6.75
2023-05-21T19:46:12.046Z,7.45
2023-05-21T19:48:38.952Z,7.25
2023-05-21T19:51:05.931Z,8.10
2023-05-21T19:53:32.870Z,6.38
2023-05-21T19:56:00.183Z,5.38
2023-05-21T19:58:29.767Z,4.53
2023-05-21T20:00:58.683Z,8.75
2023-05-21T20:03:34.519Z,5.30
2023-05-21T20:06:03.019Z,6.25
2023-05-21T20:08:30.993Z,5.57
2023-05-21T20:10:58.001Z,6.55
2023-05-21T20:13:24.980Z,5.72
2023-05-21T20:15:52.461Z,6.03
2023-05-21T20:18:21.668Z,5.25
2023-05-21T20:20:49.788Z,6.15
2023-05-21T20:23:16.789Z,5.45
2023-05-21T20:25:43.721Z,6.80
2023-05-21T20:28:10.877Z,7.65
2023-05-21T20:30:53.717Z,6.50
2023-05-21T20:33:20.690Z,5.78
2023-05-21T20:35:47.682Z,5.97
2023-05-21T20:38:16.056Z,5.18
2023-05-21T20:40:44.112Z,5.20
2023-05-21T20:43:12.290Z,7.70
2023-05-21T20:45:42.122Z,8.25
2023-05-21T20:48:10.132Z,4.50
2023-05-21T20:50:37.602Z,5.53
2023-05-21T20:53:04.884Z,6.10
2023-05-21T20:55:35.077Z,5.15
2023-05-21T20:58:05.567Z,6.13
2023-05-21T21:00:33.535Z,7.95
2023-05-21T21:03:01.435Z,4.93
2023-05-21T21:05:28.568Z,4.10
2023-05-21T21:07:56.011Z,5.20
2023-05-21T21:10:22.920Z,6.60
2023-05-21T21:12:49.860Z,8.60
2023-05-21T21:15:16.885Z,4.18
2023-05-21T21:17:43.664Z,5.32
2023-05-21T21:20:12.982Z,4.22
2023-05-21T21:22:39.865Z,6.13
2023-05-21T21:25:07.070Z,7.28
2023-05-21T21:27:34.119Z,5.13
2023-05-21T21:30:01.079Z,7.65
2023-05-21T21:32:27.956Z,5.68
2023-05-21T21:34:54.763Z,5.80
2023-05-21T21:37:21.983Z,8.88
2023-05-21T21:39:48.743Z,6.60
2023-05-21T21:42:15.843Z,5.65
2023-05-21T21:44:43.045Z,5.10
2023-05-21T21:47:10.044Z,4.53
2023-05-21T21:49:36.861Z,5.07
2023-05-21T21:52:03.788Z,4.80
2023-05-21T21:54:33.236Z,6.85
2023-05-21T21:57:00.035Z,5.65
2023-05-21T21:59:26.837Z,8.10
2023-05-21T22:01:53.629Z,6.45
2023-05-21T22:04:20.628Z,6.53
2023-05-21T22:06:48.525Z,5.28
2023-05-21T22:09:17.174Z,4.03
2023-05-21T22:11:44.221Z,5.78
2023-05-21T22:14:12.958Z,5.40
2023-05-21T22:16:41.731Z,3.63
2023-05-21T22:19:08.778Z,4.15
2023-05-21T22:21:35.680Z,5.20
2023-05-21T22:24:02.449Z,5.20
2023-05-21T22:26:29.453Z,4.82
2023-05-21T22:28:56.436Z,5.13
2023-05-21T22:31:23.247Z,4.47
2023-05-21T22:33:50.089Z,5.25
2023-05-21T22:36:16.916Z,7.00
2023-05-21T22:38:44.029Z,6.47
2023-05-21T22:41:11.317Z,6.28
2023-05-21T22:43:38.268Z,5.50
2023-05-21T22:46:05.191Z,7.47
2023-05-21T22:48:31.957Z,4.78
2023-05-21T22:50:58.893Z,6.43
2023-05-21T22:53:26.004Z,6.18
2023-05-21T22:55:53.321Z,4.95
2023-05-21T22:58:20.130Z,7.55
2023-05-21T23:00:47.431Z,6.93
2023-05-21T23:03:14.577Z,4.65
2023-05-21T23:05:41.626Z,4.72
2023-05-21T23:08:08.477Z,5.18
2023-05-21T23:10:36.015Z,4.75
2023-05-21T23:13:03.030Z,6.35
2023-05-21T23:15:29.783Z,6.75
2023-05-21T23:17:57.492Z,5.07
2023-05-21T23:20:28.013Z,7.30
2023-05-21T23:22:54.827Z,5.18
2023-05-21T23:25:21.664Z,5.88
2023-05-21T23:27:48.464Z,5.95
2023-05-21T23:30:15.381Z,4.68
2023-05-21T23:32:42.452Z,8.10
2023-05-21T23:35:10.082Z,5.53
2023-05-21T23:37:36.935Z,5.68
2023-05-21T23:40:03.984Z,6.13
2023-05-21T23:42:30.916Z,4.05
2023-05-21T23:44:57.710Z,5.18
2023-05-21T23:47:24.496Z,4.13
2023-05-21T23:49:52.534Z,4.47
2023-05-21T23:52:19.338Z,4.75
2023-05-21T23:54:46.364Z,9.13
2023-05-21T23:57:13.598Z,5.47
2023-05-21T23:59:40.744Z,5.80
